createdAt,value
2022-09-21T00:01:20.886Z,39.73
2022-09-21T00:03:47.576Z,58.87
2022-09-21T00:06:16.294Z,48.47
2022-09-21T00:08:43.164Z,46.80
2022-09-21T00:11:39.277Z,54.80
2022-09-21T00:14:08.110Z,46.67
2022-09-21T00:16:34.943Z,46.87
2022-09-21T00:19:01.700Z,63.03
2022-09-21T00:21:28.453Z,59.13
2022-09-21T00:23:55.110Z,59.57
2022-09-21T00:26:22.779Z,71.77
2022-09-21T00:28:54.479Z,58.50
2022-09-21T00:31:21.168Z,68.93
2022-09-21T00:33:47.773Z,62.47
2022-09-21T00:36:17.030Z,62.53
2022-09-21T00:38:43.870Z,63.53
2022-09-21T00:41:11.018Z,61.47
2022-09-21T00:43:40.009Z,70.27
2022-09-21T00:46:15.686Z,62.90
2022-09-21T00:48:42.887Z,62.00
2022-09-21T00:51:09.460Z,66.83
2022-09-21T00:53:36.545Z,84.17
2022-09-21T00:56:03.322Z,59.23
2022-09-21T00:58:31.704Z,64.40
2022-09-21T01:00:59.716Z,91.73
2022-09-21T01:03:26.337Z,59.87
2022-09-21T01:05:57.622Z,70.97
2022-09-21T01:08:25.994Z,74.37
2022-09-21T01:10:58.577Z,73.63
2022-09-21T01:13:54.764Z,72.87
2022-09-21T01:16:24.398Z,74.07
2022-09-21T01:18:54.061Z,63.90
2022-09-21T01:21:26.017Z,83.90
2022-09-21T01:24:01.904Z,78.20
2022-09-21T01:26:31.529Z,83.20
2022-09-21T01:29:03.222Z,75.30
2022-09-21T01:31:50.005Z,83.07
2022-09-21T01:34:36.834Z,76.00
2022-09-21T01:37:07.026Z,83.30
2022-09-21T01:39:34.906Z,96.20
2022-09-21T01:42:03.566Z,85.57
2022-09-21T01:44:33.328Z,89.70
2022-09-21T01:47:03.774Z,94.67
2022-09-21T01:49:34.424Z,101.33
2022-09-21T01:52:06.090Z,90.20
2022-09-21T01:54:36.581Z,80.50
2022-09-21T01:57:14.458Z,84.20
2022-09-21T01:59:51.213Z,80.07
2022-09-21T02:02:31.183Z,77.43
2022-09-21T02:05:00.184Z,77.57
2022-09-21T02:07:26.837Z,77.60
2022-09-21T02:09:55.000Z,92.13
2022-09-21T02:12:22.090Z,77.50
2022-09-21T02:14:49.880Z,91.87
2022-09-21T02:17:26.396Z,94.73
2022-09-21T02:20:03.139Z,73.97
2022-09-21T02:22:29.581Z,89.30
2022-09-21T02:24:59.997Z,102.00
2022-09-21T02:27:32.647Z,78.83
2022-09-21T02:30:13.389Z,76.87
2022-09-21T02:32:50.310Z,72.20
2022-09-21T02:35:30.141Z,82.63
2022-09-21T02:38:06.665Z,90.50
2022-09-21T02:40:33.187Z,72.33
2022-09-21T02:43:02.317Z,94.80
2022-09-21T02:45:32.928Z,94.97
2022-09-21T02:48:01.390Z,90.33
2022-09-21T02:50:37.396Z,96.97
2022-09-21T02:53:04.757Z,103.63
2022-09-21T02:55:32.269Z,104.17
2022-09-21T02:58:04.182Z,93.97
2022-09-21T03:00:30.837Z,79.27
2022-09-21T03:02:57.514Z,76.50
2022-09-21T03:05:24.224Z,74.20
2022-09-21T03:07:50.851Z,108.73
2022-09-21T03:10:18.762Z,107.30
2022-09-21T03:12:46.876Z,90.57
2022-09-21T03:15:13.885Z,88.40
2022-09-21T03:17:40.469Z,93.23
2022-09-21T03:20:07.938Z,95.57
2022-09-21T03:22:34.481Z,92.70
2022-09-21T03:25:01.101Z,94.40
2022-09-21T03:27:27.939Z,92.53
2022-09-21T03:29:57.682Z,88.93
2022-09-21T03:32:26.853Z,83.67
2022-09-21T03:34:53.359Z,86.93
2022-09-21T03:37:19.897Z,105.00
2022-09-21T03:39:47.257Z,110.67
2022-09-21T03:42:14.075Z,90.63
2022-09-21T03:44:41.412Z,99.67
2022-09-21T03:47:07.949Z,82.30
2022-09-21T03:49:35.036Z,100.37
2022-09-21T03:52:02.261Z,86.50
2022-09-21T03:54:28.845Z,94.33
2022-09-21T03:56:55.349Z,108.67
2022-09-21T03:59:21.949Z,97.20
2022-09-21T04:01:48.562Z,98.10
2022-09-21T04:04:16.530Z,88.30
2022-09-21T04:06:46.131Z,115.47
2022-09-21T04:09:12.821Z,90.00
2022-09-21T04:11:39.868Z,97.97
2022-09-21T04:14:06.416Z,78.83
2022-09-21T04:16:33.005Z,116.10
2022-09-21T04:19:00.114Z,102.23
2022-09-21T04:21:26.784Z,113.90
2022-09-21T04:23:53.763Z,109.93
2022-09-21T04:26:21.999Z,106.60
2022-09-21T04:28:48.857Z,84.33
2022-09-21T04:31:15.406Z,105.07
2022-09-21T04:33:41.978Z,97.80
2022-09-21T04:36:08.682Z,78.53
2022-09-21T04:38:35.451Z,60.93
2022-09-21T04:41:03.396Z,76.40
2022-09-21T04:43:30.132Z,84.73
2022-09-21T04:45:56.694Z,85.63
2022-09-21T04:48:23.409Z,91.57
2022-09-21T04:50:50.375Z,89.57
2022-09-21T04:53:17.336Z,97.63
2022-09-21T04:55:44.821Z,83.67
2022-09-21T04:58:11.321Z,78.20
2022-09-21T05:00:37.861Z,76.77
2022-09-21T05:03:04.349Z,74.40
2022-09-21T05:05:31.901Z,82.20
2022-09-21T05:07:58.633Z,73.73
2022-09-21T05:10:25.219Z,63.13
2022-09-21T05:12:52.634Z,89.33
2022-09-21T05:15:19.297Z,93.77
2022-09-21T05:17:46.675Z,64.77
2022-09-21T05:20:13.369Z,126.17
2022-09-21T05:22:39.944Z,82.93
2022-09-21T05:25:06.892Z,83.27
2022-09-21T05:27:33.634Z,87.57
2022-09-21T05:30:00.222Z,90.03
2022-09-21T05:32:41.515Z,83.30
2022-09-21T05:35:11.138Z,63.37
2022-09-21T05:37:40.908Z,86.03
2022-09-21T05:40:09.995Z,89.17
2022-09-21T05:42:36.708Z,78.33
2022-09-21T05:45:03.666Z,64.53
2022-09-21T05:47:30.207Z,62.90
2022-09-21T05:50:06.196Z,63.80
2022-09-21T05:52:45.153Z,62.57
2022-09-21T05:55:14.698Z,62.33
2022-09-21T05:57:46.494Z,53.67
2022-09-21T06:00:15.736Z,50.63
2022-09-21T06:02:57.689Z,51.03
2022-09-21T06:05:24.452Z,48.80
2022-09-21T06:07:50.965Z,41.10
2022-09-21T06:10:17.826Z,31.33
2022-09-21T06:12:44.400Z,26.40
2022-09-21T06:15:12.237Z,21.87
2022-09-21T06:17:38.833Z,22.17
2022-09-21T06:20:07.334Z,24.93
2022-09-21T06:22:34.362Z,20.90
2022-09-21T06:25:01.141Z,20.20
2022-09-21T06:27:28.322Z,16.77
2022-09-21T06:29:54.875Z,59.70
2022-09-21T06:32:21.463Z,22.97
2022-09-21T06:34:48.030Z,15.60
2022-09-21T06:37:14.539Z,21.30
2022-09-21T06:39:41.139Z,16.17
2022-09-21T06:42:07.789Z,19.83
2022-09-21T06:44:34.842Z,18.80
2022-09-21T06:47:01.372Z,18.07
2022-09-21T06:49:28.755Z,14.13
2022-09-21T06:51:55.538Z,15.63
2022-09-21T06:54:22.121Z,14.87
2022-09-21T06:56:48.658Z,20.40
2022-09-21T06:59:15.227Z,17.83
2022-09-21T07:01:41.790Z,17.77
2022-09-21T07:04:09.469Z,19.13
2022-09-21T07:06:36.165Z,19.63
2022-09-21T07:11:52.181Z,24.13
2022-09-21T07:14:19.352Z,22.27
2022-09-21T07:16:45.969Z,30.20
2022-09-21T07:19:12.645Z,28.57
2022-09-21T07:21:39.521Z,26.17
2022-09-21T07:24:09.702Z,24.87
2022-09-21T07:26:38.493Z,25.93
2022-09-21T07:29:05.222Z,24.80
2022-09-21T07:31:31.924Z,24.37
2022-09-21T07:33:59.167Z,28.20
2022-09-21T07:36:26.046Z,24.67
2022-09-21T07:38:53.964Z,29.00
2022-09-21T07:41:20.888Z,26.40
2022-09-21T07:43:47.472Z,29.37
2022-09-21T07:46:15.031Z,26.00
2022-09-21T07:48:42.958Z,26.17
2022-09-21T07:51:11.680Z,19.03
2022-09-21T07:53:39.008Z,37.60
2022-09-21T07:56:07.077Z,24.90
2022-09-21T07:58:53.413Z,23.20
2022-09-21T08:01:20.054Z,26.63
2022-09-21T08:03:50.298Z,24.17
2022-09-21T08:06:17.065Z,18.43
2022-09-21T08:08:44.123Z,23.17
2022-09-21T08:11:11.843Z,24.97
2022-09-21T08:13:38.927Z,20.73
2022-09-21T08:16:05.644Z,22.53
2022-09-21T08:18:32.253Z,27.33
2022-09-21T08:21:00.445Z,18.90
2022-09-21T08:23:29.041Z,29.37
2022-09-21T08:26:02.893Z,15.63
2022-09-21T08:28:31.151Z,25.17
2022-09-21T08:31:05.604Z,17.63
2022-09-21T08:33:32.640Z,31.23
2022-09-21T08:36:00.009Z,17.10
2022-09-21T08:38:27.155Z,21.83
2022-09-21T08:40:54.475Z,24.47
2022-09-21T08:43:51.131Z,19.97
2022-09-21T08:46:19.402Z,30.30
2022-09-21T08:48:49.444Z,20.40
2022-09-21T08:51:22.007Z,19.00
2022-09-21T08:53:51.622Z,22.57
2022-09-21T08:56:19.518Z,20.63
2022-09-21T08:58:46.108Z,20.57
2022-09-21T09:01:12.739Z,18.30
2022-09-21T09:03:42.388Z,24.20
2022-09-21T09:06:16.016Z,25.07
2022-09-21T09:08:42.637Z,23.37
2022-09-21T09:11:28.072Z,17.90
2022-09-21T09:14:13.956Z,19.30
2022-09-21T09:16:48.175Z,23.03
2022-09-21T09:19:33.521Z,25.57
2022-09-21T09:22:02.269Z,26.90
2022-09-21T09:24:32.063Z,25.73
2022-09-21T09:27:04.074Z,16.50
2022-09-21T09:29:36.656Z,20.47
2022-09-21T09:32:03.515Z,23.30
2022-09-21T09:34:42.219Z,26.70
2022-09-21T09:37:13.473Z,28.40
2022-09-21T09:39:42.243Z,20.23
2022-09-21T09:42:27.701Z,26.23
2022-09-21T09:44:54.682Z,29.20
2022-09-21T09:47:29.484Z,24.40
2022-09-21T09:50:08.338Z,20.83
2022-09-21T09:52:35.014Z,22.00
2022-09-21T09:55:14.102Z,18.63
2022-09-21T09:57:40.682Z,21.27
2022-09-21T10:00:12.394Z,12.27
2022-09-21T10:02:55.345Z,16.10
2022-09-21T10:05:32.918Z,24.73
2022-09-21T10:07:59.953Z,14.13
2022-09-21T10:10:32.607Z,18.63
2022-09-21T10:13:05.273Z,21.10
2022-09-21T10:15:32.059Z,13.73
2022-09-21T10:18:15.616Z,16.83
2022-09-21T10:20:52.815Z,14.80
2022-09-21T10:23:19.695Z,15.60
2022-09-21T10:25:52.843Z,10.43
2022-09-21T10:28:21.183Z,15.93
2022-09-21T10:30:48.779Z,22.73
2022-09-21T10:33:19.316Z,12.07
2022-09-21T10:35:50.442Z,12.40
2022-09-21T10:38:21.965Z,11.27
2022-09-21T10:40:49.977Z,11.50
2022-09-21T10:43:24.087Z,24.93
2022-09-21T10:45:55.907Z,12.37
2022-09-21T10:48:24.235Z,14.13
2022-09-21T10:50:51.581Z,11.63
2022-09-21T10:53:28.256Z,5.47
2022-09-21T10:56:15.100Z,6.23
2022-09-21T10:59:02.929Z,11.20
2022-09-21T11:01:31.296Z,5.03
2022-09-21T11:04:00.664Z,7.83
2022-09-21T11:06:30.158Z,3.33
2022-09-21T11:09:06.767Z,4.83
2022-09-21T11:11:53.108Z,4.53
2022-09-21T11:14:25.963Z,2.93
2022-09-21T11:17:01.611Z,2.07
2022-09-21T11:19:35.197Z,13.70
2022-09-21T11:22:04.999Z,9.27
2022-09-21T11:24:46.539Z,15.00
2022-09-21T11:27:18.789Z,16.03
2022-09-21T11:29:45.339Z,11.33
2022-09-21T11:32:11.976Z,6.80
2022-09-21T11:34:47.631Z,9.87
2022-09-21T11:37:21.401Z,7.70
2022-09-21T11:39:57.387Z,5.70
2022-09-21T11:42:29.975Z,5.60
2022-09-21T11:45:06.881Z,9.30
2022-09-21T11:48:06.043Z,6.63
2022-09-21T11:50:42.095Z,8.33
2022-09-21T11:53:20.748Z,6.80
2022-09-21T11:55:53.543Z,9.43
2022-09-21T11:58:24.865Z,3.50
2022-09-21T12:00:58.677Z,4.00
2022-09-21T12:03:33.341Z,4.63
2022-09-21T12:06:03.327Z,7.30
2022-09-21T12:08:33.492Z,4.67
2022-09-21T12:10:59.977Z,3.13
2022-09-21T12:13:41.888Z,2.30
2022-09-21T12:16:11.670Z,4.70
2022-09-21T12:18:48.358Z,9.23
2022-09-21T12:21:50.531Z,5.73
2022-09-21T12:24:20.659Z,4.80
2022-09-21T12:26:50.336Z,4.87
2022-09-21T12:29:43.238Z,6.83
2022-09-21T12:32:16.091Z,8.80
2022-09-21T12:34:45.376Z,10.33
2022-09-21T12:37:45.514Z,5.40
2022-09-21T12:40:30.434Z,8.00
2022-09-21T12:43:04.972Z,5.60
2022-09-21T12:46:04.303Z,11.00
2022-09-21T12:48:35.240Z,10.53
2022-09-21T12:51:17.135Z,8.60
2022-09-21T12:53:50.774Z,8.77
2022-09-21T12:56:29.928Z,16.70
2022-09-21T12:59:07.155Z,8.73
2022-09-21T13:01:37.506Z,8.10
2022-09-21T13:04:16.509Z,8.30
2022-09-21T13:06:55.377Z,13.60
2022-09-21T13:09:23.258Z,9.03
2022-09-21T13:11:52.511Z,7.13
2022-09-21T13:14:19.869Z,8.07
2022-09-21T13:16:53.503Z,16.87
2022-09-21T13:19:24.505Z,12.23
2022-09-21T13:22:15.264Z,6.67
2022-09-21T13:24:45.544Z,5.17
2022-09-21T13:27:13.451Z,6.57
2022-09-21T13:29:41.827Z,3.00
2022-09-21T13:32:11.480Z,10.20
2022-09-21T13:34:39.133Z,7.97
2022-09-21T13:37:13.879Z,9.40
2022-09-21T13:39:45.077Z,8.07
2022-09-21T13:42:30.416Z,5.20
2022-09-21T13:44:58.019Z,5.97
2022-09-21T13:47:32.294Z,8.43
2022-09-21T13:50:01.425Z,16.80
2022-09-21T13:52:31.486Z,4.30
2022-09-21T13:55:04.254Z,3.30
2022-09-21T13:57:34.274Z,9.70
2022-09-21T14:00:23.880Z,17.00
2022-09-21T14:02:50.588Z,3.60
2022-09-21T14:05:23.601Z,6.20
2022-09-21T14:07:57.908Z,5.40
2022-09-21T14:10:24.827Z,6.03
2022-09-21T14:12:51.682Z,6.03
2022-09-21T14:15:19.409Z,4.30
2022-09-21T14:18:08.444Z,10.63
2022-09-21T14:20:39.508Z,4.27
2022-09-21T14:23:27.767Z,7.70
2022-09-21T14:25:58.629Z,6.87
2022-09-21T14:28:36.488Z,3.67
2022-09-21T14:31:05.326Z,8.57
2022-09-21T14:33:43.453Z,3.80
2022-09-21T14:36:14.688Z,6.00
2022-09-21T14:38:52.462Z,8.67
2022-09-21T14:41:22.606Z,4.67
2022-09-21T14:43:52.783Z,6.37
2022-09-21T14:46:40.413Z,9.30
2022-09-21T14:49:26.567Z,4.50
2022-09-21T14:52:12.947Z,5.17
2022-09-21T14:55:00.182Z,3.97
2022-09-21T14:57:43.420Z,6.27
2022-09-21T15:00:23.264Z,2.50
2022-09-21T15:02:57.673Z,6.07
2022-09-21T15:05:28.320Z,2.00
2022-09-21T15:08:33.753Z,6.87
2022-09-21T15:11:01.025Z,5.10
2022-09-21T15:13:43.245Z,3.47
2022-09-21T15:16:18.056Z,5.10
2022-09-21T15:18:47.039Z,2.60
2022-09-21T15:21:22.004Z,7.60
2022-09-21T15:23:51.712Z,1.77
2022-09-21T15:26:24.519Z,2.00
2022-09-21T15:29:10.508Z,7.73
2022-09-21T15:31:41.593Z,5.47
2022-09-21T15:34:09.108Z,5.80
2022-09-21T15:36:38.224Z,5.80
2022-09-21T15:39:05.610Z,4.40
2022-09-21T15:41:40.415Z,16.90
2022-09-21T15:44:28.373Z,4.77
2022-09-21T15:47:01.097Z,3.37
2022-09-21T15:49:30.210Z,8.50
2022-09-21T15:52:00.356Z,7.30
2022-09-21T15:54:32.461Z,6.20
2022-09-21T15:57:08.430Z,9.63
2022-09-21T15:59:36.367Z,2.53
2022-09-21T16:02:12.315Z,4.37
2022-09-21T16:04:48.492Z,3.80
2022-09-21T16:07:27.451Z,4.77
2022-09-21T16:09:55.118Z,4.13
2022-09-21T16:12:38.521Z,4.40
2022-09-21T16:15:25.438Z,4.00
2022-09-21T16:17:55.809Z,6.50
2022-09-21T16:20:23.721Z,4.90
2022-09-21T16:22:53.291Z,6.83
2022-09-21T16:25:20.485Z,3.13
2022-09-21T16:28:00.512Z,5.03
2022-09-21T16:30:53.510Z,6.27
2022-09-21T16:33:39.924Z,3.83
2022-09-21T16:36:13.588Z,8.83
2022-09-21T16:38:40.929Z,5.67
2022-09-21T16:41:08.892Z,3.17
2022-09-21T16:43:43.706Z,3.80
2022-09-21T16:46:10.861Z,11.17
2022-09-21T16:48:37.806Z,7.77
2022-09-21T16:51:09.141Z,5.60
2022-09-21T16:53:35.976Z,3.13
2022-09-21T16:56:03.156Z,2.47
2022-09-21T16:58:29.828Z,5.77
2022-09-21T17:01:00.867Z,4.07
2022-09-21T17:03:29.399Z,6.30
2022-09-21T17:05:57.459Z,6.10
2022-09-21T17:08:24.842Z,5.47
2022-09-21T17:10:51.771Z,13.63
2022-09-21T17:13:19.944Z,6.03
2022-09-21T17:15:47.719Z,13.93
2022-09-21T17:18:15.046Z,3.23
2022-09-21T17:20:42.955Z,2.60
2022-09-21T17:23:09.905Z,3.70
2022-09-21T17:25:36.945Z,5.27
2022-09-21T17:28:11.144Z,12.57
2022-09-21T17:30:38.197Z,9.17
2022-09-21T17:33:05.273Z,9.97
2022-09-21T17:35:33.143Z,7.70
2022-09-21T17:38:00.278Z,4.90
2022-09-21T17:40:27.525Z,7.20
2022-09-21T17:42:56.303Z,3.63
2022-09-21T17:45:37.709Z,9.90
2022-09-21T17:48:05.677Z,10.03
2022-09-21T17:50:34.898Z,4.30
2022-09-21T17:53:20.687Z,16.00
2022-09-21T17:55:54.595Z,8.70
2022-09-21T17:58:40.573Z,7.73
2022-09-21T18:01:12.609Z,6.80
2022-09-21T18:03:41.754Z,5.10
2022-09-21T18:06:09.401Z,5.73
2022-09-21T18:08:36.864Z,16.40
2022-09-21T18:11:03.858Z,14.30
2022-09-21T18:13:49.483Z,4.80
2022-09-21T18:16:27.219Z,13.20
2022-09-21T18:19:03.189Z,6.93
2022-09-21T18:21:30.017Z,14.63
2022-09-21T18:23:59.929Z,15.17
2022-09-21T18:26:26.813Z,8.30
2022-09-21T18:28:59.586Z,11.00
2022-09-21T18:31:32.581Z,11.03
2022-09-21T18:34:15.383Z,15.83
2022-09-21T18:36:55.049Z,10.30
2022-09-21T18:39:24.933Z,16.60
2022-09-21T18:41:59.641Z,14.17
2022-09-21T18:44:32.072Z,9.30
2022-09-21T18:47:06.387Z,13.83
2022-09-21T18:49:45.998Z,8.63
2022-09-21T18:52:22.629Z,9.13
2022-09-21T18:54:49.236Z,19.60
2022-09-21T18:57:16.233Z,18.33
2022-09-21T18:59:42.987Z,7.50
2022-09-21T19:02:10.927Z,19.33
2022-09-21T19:04:38.028Z,8.70
2022-09-21T19:07:10.798Z,8.83
2022-09-21T19:09:52.083Z,14.10
2022-09-21T19:12:23.937Z,4.50
2022-09-21T19:15:12.312Z,14.03
2022-09-21T19:17:55.034Z,14.43
2022-09-21T19:20:24.044Z,6.53
2022-09-21T19:22:53.977Z,7.50
2022-09-21T19:25:24.984Z,10.50
2022-09-21T19:27:54.831Z,13.73
2022-09-21T19:30:21.781Z,17.73
2022-09-21T19:32:49.965Z,14.43
2022-09-21T19:35:19.035Z,16.07
2022-09-21T19:37:47.405Z,21.20
2022-09-21T19:40:15.357Z,24.97
2022-09-21T19:42:44.986Z,14.07
2022-09-21T19:45:18.709Z,12.30
2022-09-21T19:47:50.789Z,15.03
2022-09-21T19:50:20.073Z,24.67
2022-09-21T19:52:46.964Z,15.67
2022-09-21T19:55:36.405Z,18.40
2022-09-21T19:58:22.252Z,30.53
2022-09-21T20:00:52.215Z,11.50
2022-09-21T20:03:31.531Z,15.27
2022-09-21T20:06:05.088Z,32.97
2022-09-21T20:08:34.837Z,16.47
2022-09-21T20:11:17.906Z,12.50
2022-09-21T20:13:53.952Z,13.60
2022-09-21T20:16:20.943Z,15.63
2022-09-21T20:18:52.589Z,18.47
2022-09-21T20:21:22.202Z,18.40
2022-09-21T20:23:53.096Z,9.47
2022-09-21T20:26:19.673Z,14.13
2022-09-21T20:28:46.558Z,17.40
2022-09-21T20:31:13.173Z,11.73
2022-09-21T20:33:39.705Z,20.00
2022-09-21T20:36:06.823Z,22.13
2022-09-21T20:38:34.765Z,17.13
2022-09-21T20:41:01.804Z,16.43
2022-09-21T20:43:32.482Z,17.13
2022-09-21T20:46:00.115Z,15.50
2022-09-21T20:48:26.762Z,11.77
2022-09-21T20:50:54.087Z,11.77
2022-09-21T20:53:20.681Z,17.70
2022-09-21T20:55:54.218Z,17.50
2022-09-21T20:58:21.070Z,15.80
2022-09-21T21:00:47.646Z,25.50
2022-09-21T21:03:14.341Z,16.87
2022-09-21T21:05:40.875Z,15.77
2022-09-21T21:08:09.036Z,8.93
2022-09-21T21:10:35.551Z,23.40
2022-09-21T21:13:02.107Z,12.27
2022-09-21T21:15:28.970Z,16.73
2022-09-21T21:17:55.787Z,11.73
2022-09-21T21:20:22.642Z,10.83
2022-09-21T21:22:50.377Z,13.60
2022-09-21T21:25:17.042Z,17.00
2022-09-21T21:27:43.715Z,29.63
2022-09-21T21:30:10.630Z,25.47
2022-09-21T21:32:37.558Z,19.40
2022-09-21T21:35:04.635Z,18.40
2022-09-21T21:37:31.243Z,15.83
2022-09-21T21:39:58.476Z,21.57
2022-09-21T21:42:25.270Z,28.80
2022-09-21T21:44:52.013Z,23.33
2022-09-21T21:47:38.613Z,17.00
2022-09-21T21:50:05.637Z,21.27
2022-09-21T21:52:32.202Z,15.20
2022-09-21T21:54:58.718Z,26.63
2022-09-21T21:57:25.322Z,16.20
2022-09-21T21:59:51.819Z,15.40
2022-09-21T22:02:18.435Z,18.43
2022-09-21T22:04:45.245Z,16.10
2022-09-21T22:07:11.782Z,27.47
2022-09-21T22:09:38.643Z,16.37
2022-09-21T22:12:05.523Z,17.83
2022-09-21T22:14:32.085Z,15.40
2022-09-21T22:16:59.179Z,16.47
2022-09-21T22:19:26.053Z,15.87
2022-09-21T22:21:54.386Z,25.17
2022-09-21T22:24:21.774Z,20.80
2022-09-21T22:26:51.300Z,24.80
2022-09-21T22:29:17.830Z,29.40
2022-09-21T22:31:45.902Z,17.97
2022-09-21T22:34:12.816Z,27.03
2022-09-21T22:36:39.929Z,27.87
2022-09-21T22:39:07.561Z,24.13
2022-09-21T22:41:35.395Z,22.83
2022-09-21T22:44:02.213Z,29.23
2022-09-21T22:46:29.419Z,21.50
2022-09-21T22:48:56.170Z,25.00
2022-09-21T22:51:22.871Z,25.33
2022-09-21T22:53:50.199Z,23.00
2022-09-21T22:56:20.911Z,25.57
2022-09-21T22:58:48.288Z,21.13
2022-09-21T23:01:18.150Z,29.83
2022-09-21T23:03:45.915Z,26.90
2022-09-21T23:06:13.221Z,30.07
2022-09-21T23:08:39.794Z,25.10
2022-09-21T23:11:13.741Z,23.63
2022-09-21T23:13:40.467Z,26.07
2022-09-21T23:16:08.424Z,30.07
2022-09-21T23:18:35.235Z,27.90
2022-09-21T23:21:03.650Z,33.43
2022-09-21T23:23:30.245Z,32.70
2022-09-21T23:26:06.732Z,28.63
2022-09-21T23:28:34.447Z,30.00
2022-09-21T23:31:02.149Z,26.93
2022-09-21T23:33:36.290Z,29.73
2022-09-21T23:36:03.717Z,31.33
2022-09-21T23:38:30.640Z,25.87
2022-09-21T23:41:01.806Z,33.70
2022-09-21T23:43:28.575Z,23.40
2022-09-21T23:45:55.374Z,26.67
2022-09-21T23:48:21.949Z,26.50
2022-09-21T23:50:48.501Z,27.97
2022-09-21T23:53:15.009Z,25.03
2022-09-21T23:55:41.794Z,27.40
2022-09-21T23:58:08.292Z,31.47
